Time;durP1;ratioP1;P1;durP2;ratioP2;P2;SDS_P1;SDS_P2;PMS_P1;PMS_P2;Temp;Humidity;BMP_temperature;BMP_pressure;BME280_temperature;BME280_humidity;BME280_pressure;Samples;Min_cycle;Max_cycle;Signal;HPM_P1;HPM_P2
2022/05/27 01:03:38;;;;;;;13.85;5.85;;;21.10;99.90;;;;;;4993005;28;20073;-83
2022/05/27 05:11:43;;;;;;;;;;;;;;;;;;;;;
2022/05/27 05:31:33;;;;;;;;;;;;;;;;;;;;;
2022/05/27 05:45:24;;;;;;;;;;;;;;;;;;;;;
2022/05/27 05:48:46;;;;;;;;;;;;;;;;;;;;;
2022/05/27 07:02:32;;;;;;;19.25;5.05;;;41.30;82.40;;;;;;4874539;29;20063;-84
2022/05/27 07:19:46;;;;;;;13.43;3.80;;;40.90;67.70;;;;;;4878350;29;20112;-86
2022/05/27 07:22:34;;;;;;;18.98;4.22;;;41.30;66.80;;;;;;4877372;29;20056;-86
2022/05/27 07:36:50;;;;;;;20.83;4.20;;;44.50;58.50;;;;;;4843854;29;20224;-83
2022/05/27 07:39:33;;;;;;;24.63;4.35;;;44.40;58.30;;;;;;4979330;28;20045;-81
2022/05/27 07:42:28;;;;;;;20.83;4.15;;;44.10;58.40;;;;;;5012734;28;20120;-83
2022/05/27 07:45:27;;;;;;;16.33;4.45;;;43.70;58.40;;;;;;4978939;28;20047;-84
2022/05/27 07:59:19;;;;;;;20.35;4.95;;;41.10;61.40;;;;;;4802965;29;20046;-85
2022/05/27 08:02:19;;;;;;;16.77;3.72;;;41.50;60.50;;;;;;4801924;29;20039;-83
2022/05/27 08:08:54;;;;;;;;;;;;;;;;;;;;;
2022/05/27 08:11:39;;;;;;;13.30;3.88;;;38.30;65.50;;;;;;4835972;29;20129;-85
2022/05/27 08:14:17;;;;;;;20.50;4.57;;;37.30;67.50;;;;;;4837346;29;20054;-83
2022/05/27 08:17:33;;;;;;;24.90;5.57;;;36.80;68.60;;;;;;4837600;29;20545;-87
2022/05/27 08:20:48;;;;;;;23.98;5.07;;;36.30;69.50;;;;;;4987504;28;20057;-86
2022/05/27 08:23:41;;;;;;;13.73;4.15;;;35.90;70.50;;;;;;5009791;28;20375;-86
2022/05/27 08:26:17;;;;;;;11.10;4.70;;;35.30;71.90;;;;;;5009522;28;20038;-79
2022/05/27 08:28:47;;;;;;;16.77;4.85;;;35.10;72.50;;;;;;5014752;28;20084;-85
2022/05/27 08:31:21;;;;;;;14.63;4.90;;;34.90;72.50;;;;;;5014626;28;20045;-85
2022/05/27 08:40:20;;;;;;;18.20;4.82;;;34.90;72.50;;;;;;5016278;28;20041;-85
2022/05/27 08:43:03;;;;;;;22.45;5.03;;;34.70;72.50;;;;;;5015904;28;20099;-85
2022/05/27 08:46:10;;;;;;;18.05;4.65;;;34.60;73.30;;;;;;5015869;28;20026;-83
2022/05/27 08:48:41;;;;;;;23.58;5.70;;;34.40;73.50;;;;;;4998054;28;20045;-82
2022/05/27 08:51:21;;;;;;;24.13;5.10;;;34.40;72.70;;;;;;5012845;28;20030;-83
2022/05/27 08:53:54;;;;;;;23.23;5.57;;;34.20;73.00;;;;;;5015318;28;20029;-81
2022/05/27 08:59:35;;;;;;;13.52;4.82;;;33.90;73.80;;;;;;5015567;28;20493;-83
2022/05/27 09:02:15;;;;;;;20.63;5.15;;;33.70;74.50;;;;;;5015485;28;20034;-82
2022/05/27 09:04:44;;;;;;;12.20;4.95;;;33.50;75.10;;;;;;5027106;28;20052;-81
2022/05/27 09:07:36;;;;;;;27.63;4.75;;;33.40;75.80;;;;;;5017269;28;20402;-84
2022/05/27 09:10:08;;;;;;;15.27;4.00;;;33.00;77.20;;;;;;5035164;28;20105;-82
2022/05/27 09:12:37;;;;;;;21.25;4.80;;;32.90;78.20;;;;;;5034844;28;20037;-83
2022/05/27 09:15:21;;;;;;;9.38;4.05;;;32.60;79.50;;;;;;5016524;28;20116;-81
2022/05/27 09:17:54;;;;;;;12.52;4.85;;;32.70;79.70;;;;;;5034276;28;20508;-82
2022/05/27 09:20:30;;;;;;;16.02;4.45;;;33.00;79.30;;;;;;5034072;28;20040;-81
2022/05/27 09:23:04;;;;;;;16.35;4.53;;;33.20;79.30;;;;;;5034474;28;20394;-82
2022/05/27 09:25:33;;;;;;;27.75;4.60;;;33.20;79.40;;;;;;5017020;28;20032;-82
2022/05/27 09:28:27;;;;;;;14.73;4.70;;;33.20;79.20;;;;;;5034941;28;20385;-82
2022/05/27 09:30:54;;;;;;;25.33;4.88;;;33.00;79.70;;;;;;5017407;28;20152;-82
2022/05/27 09:33:23;;;;;;;15.05;4.50;;;32.90;79.50;;;;;;5033636;28;20022;-81
2022/05/27 09:36:11;;;;;;;14.77;4.10;;;32.70;80.20;;;;;;5034673;28;20036;-82
2022/05/27 09:38:52;;;;;;;20.35;5.15;;;32.40;80.30;;;;;;5014553;28;20044;-82
2022/05/27 09:41:23;;;;;;;13.90;5.20;;;32.50;80.40;;;;;;5035363;28;20029;-82
2022/05/27 09:44:03;;;;;;;14.10;5.07;;;32.60;80.80;;;;;;5033653;28;20092;-82
2022/05/27 09:46:31;;;;;;;16.25;5.18;;;32.70;80.60;;;;;;5034696;28;20026;-81
2022/05/27 09:48:58;;;;;;;13.38;4.35;;;32.70;81.50;;;;;;5017135;28;20044;-82
2022/05/27 09:51:26;;;;;;;10.98;4.03;;;32.60;81.80;;;;;;5035399;28;20026;-81
2022/05/27 09:53:56;;;;;;;15.23;4.88;;;32.20;81.50;;;;;;5035260;28;20410;-81
2022/05/27 09:57:01;;;;;;;10.07;3.97;;;31.80;81.80;;;;;;5035277;28;20033;-81
2022/05/27 09:59:36;;;;;;;11.30;4.28;;;31.80;82.50;;;;;;5006179;28;20030;-82
2022/05/27 10:02:26;;;;;;;13.52;4.32;;;31.70;81.80;;;;;;5034914;28;20037;-81
2022/05/27 10:05:00;;;;;;;17.60;3.85;;;31.50;82.50;;;;;;5017075;28;20379;-82
2022/05/27 10:07:32;;;;;;;19.17;5.25;;;31.50;83.50;;;;;;5034796;28;20445;-81
2022/05/27 10:10:23;;;;;;;14.10;4.93;;;31.50;83.80;;;;;;5035015;28;20039;-81
2022/05/27 10:12:49;;;;;;;14.93;4.55;;;31.40;84.80;;;;;;5034639;28;20024;-82
2022/05/27 10:15:34;;;;;;;15.50;4.97;;;31.40;84.80;;;;;;5034702;28;20072;-82
2022/05/27 10:18:20;;;;;;;25.52;5.32;;;31.20;86.00;;;;;;5034672;28;20100;-82
2022/05/27 10:21:15;;;;;;;11.57;4.97;;;31.00;86.90;;;;;;5034422;28;20104;-81
2022/05/27 10:23:45;;;;;;;16.98;6.20;;;30.90;87.00;;;;;;5034570;28;20037;-80
2022/05/27 10:26:27;;;;;;;21.13;4.47;;;30.70;87.70;;;;;;5034623;28;20040;-80
2022/05/27 10:28:56;;;;;;;16.30;4.70;;;30.90;87.90;;;;;;5034796;28;20037;-81
2022/05/27 10:31:23;;;;;;;13.00;4.55;;;31.00;87.60;;;;;;5034469;28;20030;-81
2022/05/27 10:33:49;;;;;;;19.50;4.88;;;31.00;88.50;;;;;;5034495;28;20033;-81
2022/05/27 10:36:35;;;;;;;13.77;4.78;;;31.00;88.60;;;;;;5034545;28;20026;-81
2022/05/27 10:39:04;;;;;;;18.10;4.55;;;30.90;89.30;;;;;;5034535;28;20548;-80
2022/05/27 10:42:03;;;;;;;10.88;4.60;;;30.90;88.10;;;;;;5034262;28;20040;-82
2022/05/27 10:44:49;;;;;;;11.48;5.35;;;30.80;88.50;;;;;;5033917;28;20100;-82
2022/05/27 10:47:38;;;;;;;17.70;5.03;;;30.80;88.10;;;;;;5033469;28;20501;-82
2022/05/27 10:50:34;;;;;;;16.77;4.95;;;30.60;90.00;;;;;;5034366;28;20538;-82
2022/05/27 10:53:00;;;;;;;15.50;5.13;;;30.40;90.70;;;;;;4983586;28;20546;-82
2022/05/27 10:55:31;;;;;;;13.55;5.35;;;30.30;90.60;;;;;;5034219;28;20113;-83
2022/05/27 11:02:04;;;;;;;13.82;4.93;;;30.10;90.70;;;;;;5033944;28;20144;-80
2022/05/27 11:04:45;;;;;;;18.30;4.88;;;30.00;90.90;;;;;;5033501;28;20056;-82
2022/05/27 11:07:31;;;;;;;15.50;5.30;;;30.00;91.50;;;;;;5033508;28;20069;-82
2022/05/27 11:10:52;;;;;;;13.10;4.50;;;30.10;91.10;;;;;;5033450;28;20021;-83
2022/05/27 11:17:00;;;;;;;11.90;4.75;;;30.10;92.80;;;;;;5031832;28;20036;-81
2022/05/27 11:19:45;;;;;;;12.70;4.75;;;30.00;93.50;;;;;;5028811;28;20041;-80
2022/05/27 11:22:19;;;;;;;23.35;5.35;;;29.90;93.50;;;;;;5015923;28;20037;-82
2022/05/27 11:25:21;;;;;;;8.50;4.40;;;29.80;93.30;;;;;;5033610;28;20128;-82
2022/05/27 11:28:04;;;;;;;20.83;5.00;;;29.80;93.10;;;;;;5033389;28;20025;-82
2022/05/27 11:30:56;;;;;;;21.73;4.38;;;29.80;92.70;;;;;;5033360;28;20087;-80
2022/05/27 11:33:30;;;;;;;13.82;4.35;;;29.80;92.30;;;;;;5015803;28;20400;-81
2022/05/27 11:36:09;;;;;;;22.95;4.68;;;29.80;93.30;;;;;;5033148;28;20030;-81
2022/05/27 11:39:12;;;;;;;11.18;4.63;;;29.80;94.00;;;;;;5033391;28;20117;-82
2022/05/27 11:41:41;;;;;;;15.02;5.05;;;29.70;94.10;;;;;;5033392;28;20033;-81
2022/05/27 11:44:09;;;;;;;14.57;5.28;;;29.60;94.10;;;;;;5033116;28;20045;-81
2022/05/27 11:46:41;;;;;;;12.27;5.18;;;29.60;94.20;;;;;;5032932;28;20030;-81
2022/05/27 11:49:27;;;;;;;13.25;5.03;;;29.60;94.80;;;;;;5015545;28;20034;-80
2022/05/27 11:52:11;;;;;;;17.33;5.38;;;29.70;95.20;;;;;;5015480;28;20128;-81
2022/05/27 11:55:14;;;;;;;17.05;5.07;;;29.70;95.30;;;;;;5015193;28;20071;-81
2022/05/27 11:57:49;;;;;;;13.80;5.03;;;29.60;95.60;;;;;;5032117;28;20029;-82
2022/05/27 12:00:18;;;;;;;18.58;5.90;;;29.60;95.30;;;;;;5033090;28;20037;-81
2022/05/27 12:03:04;;;;;;;10.68;5.07;;;29.60;95.00;;;;;;5033083;28;20037;-81
2022/05/27 12:05:33;;;;;;;12.73;5.05;;;29.60;95.20;;;;;;5032654;28;20037;-81
2022/05/27 12:08:24;;;;;;;21.23;5.15;;;29.80;95.70;;;;;;5032969;28;20065;-81
2022/05/27 12:11:19;;;;;;;23.35;5.35;;;29.70;96.20;;;;;;5032883;28;20109;-84
2022/05/27 12:14:14;;;;;;;14.85;4.65;;;29.60;96.10;;;;;;5015085;28;20029;-83
2022/05/27 12:16:43;;;;;;;13.73;4.90;;;29.50;96.40;;;;;;5032085;28;20120;-82
2022/05/27 12:19:24;;;;;;;17.52;5.05;;;29.50;96.40;;;;;;5032656;28;20021;-85
2022/05/27 12:22:22;;;;;;;14.73;5.22;;;29.50;96.40;;;;;;5032805;28;20060;-83
2022/05/27 12:24:55;;;;;;;16.17;4.97;;;29.40;96.60;;;;;;5026368;28;20103;-80
2022/05/27 12:27:23;;;;;;;18.40;4.90;;;29.30;97.20;;;;;;5032652;28;20026;-82
2022/05/27 12:29:50;;;;;;;11.88;4.82;;;29.00;97.30;;;;;;5032817;28;20033;-83
2022/05/27 12:32:18;;;;;;;15.38;5.82;;;28.80;97.20;;;;;;5032815;28;20393;-81
2022/05/27 12:34:48;;;;;;;12.10;5.10;;;28.70;98.10;;;;;;5032569;28;20060;-82
2022/05/27 12:37:25;;;;;;;15.98;5.97;;;28.70;98.80;;;;;;5032691;28;20095;-82
2022/05/27 12:39:56;;;;;;;15.57;5.13;;;28.70;98.60;;;;;;5032699;28;20037;-81
2022/05/27 12:42:24;;;;;;;17.08;5.80;;;28.70;98.60;;;;;;5032589;28;20029;-82
2022/05/27 12:44:51;;;;;;;22.80;4.85;;;28.80;98.70;;;;;;5014820;28;20390;-81
2022/05/27 12:47:35;;;;;;;16.95;5.47;;;28.80;98.30;;;;;;5032193;28;20022;-83
2022/05/27 12:50:15;;;;;;;13.75;5.75;;;29.00;98.60;;;;;;5014823;28;20076;-82
2022/05/27 12:52:56;;;;;;;14.38;5.80;;;29.10;97.50;;;;;;5014820;28;20113;-83
2022/05/27 13:01:29;;;;;;;20.25;5.45;;;28.90;98.70;;;;;;5032712;28;20103;-82
2022/05/27 13:04:00;;;;;;;14.35;5.03;;;28.90;99.10;;;;;;5032106;28;20049;-80
2022/05/27 13:06:26;;;;;;;19.65;5.97;;;29.00;99.00;;;;;;5032130;28;20021;-81
2022/05/27 13:08:52;;;;;;;22.23;5.75;;;29.00;98.70;;;;;;5017122;28;20124;-81
2022/05/27 13:11:23;;;;;;;18.52;6.22;;;29.00;98.20;;;;;;5036252;28;20034;-80
2022/05/27 13:14:12;;;;;;;21.63;6.80;;;29.00;98.30;;;;;;5036006;28;20033;-81
2022/05/27 13:17:16;;;;;;;32.70;7.72;;;28.90;97.90;;;;;;5035900;28;20025;-80
2022/05/27 13:19:51;;;;;;;23.77;6.43;;;28.90;96.90;;;;;;5035764;28;20025;-83
2022/05/27 13:22:38;;;;;;;26.42;6.07;;;28.80;96.20;;;;;;5035642;28;20037;-82
2022/05/27 13:25:24;;;;;;;23.30;6.93;;;28.80;96.10;;;;;;5035636;28;20052;-81
2022/05/27 13:27:58;;;;;;;18.67;6.22;;;28.80;97.20;;;;;;5017964;28;20394;-82
2022/05/27 13:30:49;;;;;;;20.67;6.47;;;28.90;97.00;;;;;;5035701;28;20500;-82
2022/05/27 13:33:23;;;;;;;23.08;6.03;;;28.80;96.40;;;;;;5035776;28;20026;-81
2022/05/27 13:35:50;;;;;;;16.08;5.72;;;28.80;96.10;;;;;;5035442;28;20034;-80
2022/05/27 13:38:21;;;;;;;36.67;9.25;;;28.80;97.10;;;;;;5017776;28;20053;-82
2022/05/27 13:40:47;;;;;;;24.65;6.57;;;28.80;96.50;;;;;;5035525;28;20021;-82
2022/05/27 13:43:20;;;;;;;20.25;6.45;;;28.80;97.10;;;;;;5017957;28;20099;-82
2022/05/27 13:45:52;;;;;;;24.45;7.40;;;28.90;97.20;;;;;;5035194;28;20068;-82
2022/05/27 13:48:34;;;;;;;24.92;5.78;;;29.00;96.80;;;;;;5017570;28;20040;-81
2022/05/27 13:51:08;;;;;;;34.50;8.40;;;28.90;97.50;;;;;;5035295;28;20542;-82
2022/05/27 13:53:38;;;;;;;17.60;6.90;;;28.90;98.00;;;;;;5035073;28;20125;-82
2022/05/27 13:56:24;;;;;;;25.83;7.78;;;28.90;98.30;;;;;;5035175;28;20030;-82
2022/05/27 13:59:03;;;;;;;22.10;5.97;;;28.80;97.50;;;;;;5035245;28;20386;-82
2022/05/27 14:01:45;;;;;;;19.85;5.63;;;28.80;97.70;;;;;;5035050;28;20041;-82
2022/05/27 14:04:14;;;;;;;15.00;5.75;;;28.80;98.00;;;;;;5034887;28;20187;-81
2022/05/27 14:06:40;;;;;;;11.07;5.00;;;28.70;97.10;;;;;;5017279;28;20052;-81
2022/05/27 14:09:34;;;;;;;18.15;5.00;;;28.60;96.50;;;;;;5035035;28;20082;-81
2022/05/27 14:12:02;;;;;;;19.08;4.78;;;28.50;97.50;;;;;;5031622;28;20056;-82
2022/05/27 14:14:31;;;;;;;20.75;6.88;;;28.50;96.60;;;;;;5034713;28;20029;-81
2022/05/27 14:16:58;;;;;;;26.33;6.03;;;28.50;99.90;;;;;;5034680;28;20065;-83
2022/05/27 14:19:26;;;;;;;26.17;5.82;;;28.40;99.50;;;;;;5034064;28;20029;-82
2022/05/27 14:22:40;;;;;;;17.05;5.38;;;28.30;99.40;;;;;;5034766;28;20410;-81
2022/05/27 14:25:10;;;;;;;22.15;6.13;;;28.30;99.10;;;;;;5034137;28;20046;-83
2022/05/27 14:27:43;;;;;;;20.23;5.72;;;28.30;98.90;;;;;;5033316;28;20026;-81
2022/05/27 14:30:14;;;;;;;22.13;6.80;;;28.20;97.70;;;;;;5032619;28;20433;-85
2022/05/27 14:32:40;;;;;;;17.87;6.20;;;28.20;98.40;;;;;;5031390;28;20025;-84
2022/05/27 14:35:08;;;;;;;18.60;5.85;;;28.20;99.90;;;;;;5034254;28;20268;-82
2022/05/27 14:37:47;;;;;;;27.38;7.38;;;28.20;99.90;;;;;;5033938;28;20112;-85
2022/05/27 14:40:18;;;;;;;22.42;6.25;;;28.30;99.90;;;;;;5033240;28;20425;-88
2022/05/27 14:42:44;;;;;;;21.10;6.15;;;28.20;99.90;;;;;;5033301;28;20539;-86
2022/05/27 14:45:52;;;;;;;17.13;5.25;;;28.20;99.90;;;;;;5015537;28;20034;-83
2022/05/27 14:48:21;;;;;;;23.83;4.90;;;28.30;99.90;;;;;;5017723;28;20052;-80
2022/05/27 14:50:47;;;;;;;17.17;4.55;;;28.40;99.90;;;;;;5013837;28;20037;-78
2022/05/27 14:53:15;;;;;;;21.23;5.45;;;28.40;99.60;;;;;;5032674;28;20112;-79
2022/05/27 14:55:41;;;;;;;18.92;6.97;;;28.40;99.90;;;;;;5032532;28;20033;-76
2022/05/27 14:58:08;;;;;;;22.23;6.28;;;28.30;99.90;;;;;;5032066;28;20378;-77
2022/05/27 15:00:45;;;;;;;14.88;6.15;;;28.30;99.90;;;;;;5032518;28;20029;-77
2022/05/27 15:03:26;;;;;;;29.05;6.00;;;28.40;99.90;;;;;;5032422;28;20045;-78
2022/05/27 15:05:52;;;;;;;28.73;4.90;;;28.40;99.90;;;;;;5030702;28;20124;-77
2022/05/27 15:08:18;;;;;;;21.38;5.97;;;28.40;99.90;;;;;;5032160;28;20139;-77
2022/05/27 15:10:44;;;;;;;14.00;5.47;;;28.40;99.90;;;;;;5032606;28;20490;-78
2022/05/27 15:13:31;;;;;;;17.55;5.15;;;28.40;99.90;;;;;;5033202;28;20104;-78
2022/05/27 15:16:23;;;;;;;25.50;6.00;;;28.30;99.90;;;;;;5032848;28;20033;-78
2022/05/27 15:18:57;;;;;;;22.30;5.63;;;28.20;99.90;;;;;;5032588;28;20033;-77
2022/05/27 15:21:28;;;;;;;20.45;6.40;;;28.10;99.90;;;;;;5033276;28;20026;-76
2022/05/27 15:23:58;;;;;;;29.50;6.28;;;28.00;99.90;;;;;;5033107;28;20080;-78
2022/05/27 15:35:46;;;;;;;24.58;5.07;;;27.90;99.90;;;;;;4970978;28;20053;-77
2022/05/27 15:38:14;;;;;;;22.23;4.47;;;28.00;99.90;;;;;;5018752;28;20037;-77
2022/05/27 15:40:42;;;;;;;18.10;5.10;;;28.00;99.90;;;;;;5031558;28;20026;-78
2022/05/27 15:43:37;;;;;;;20.30;4.90;;;28.10;99.80;;;;;;5031581;28;20048;-77
2022/05/27 15:46:06;;;;;;;12.15;4.28;;;28.10;99.20;;;;;;5032714;28;20525;-77
2022/05/27 15:48:32;;;;;;;19.00;4.45;;;27.90;97.90;;;;;;5031874;28;20026;-78
2022/05/27 15:50:59;;;;;;;28.08;4.13;;;27.90;96.70;;;;;;5031258;28;20107;-78
2022/05/27 15:53:25;;;;;;;15.60;3.80;;;27.80;97.20;;;;;;5032699;28;20379;-78
2022/05/27 15:55:52;;;;;;;22.27;4.32;;;27.80;97.60;;;;;;5015073;28;20113;-80
2022/05/27 15:58:18;;;;;;;12.05;4.07;;;27.80;98.10;;;;;;5030438;28;20040;-77
2022/05/27 16:00:44;;;;;;;14.15;3.90;;;27.70;98.20;;;;;;5031751;28;20108;-77
2022/05/27 16:03:10;;;;;;;27.40;4.13;;;27.70;97.80;;;;;;5032227;28;20120;-78
2022/05/27 16:05:36;;;;;;;20.20;4.43;;;27.70;98.00;;;;;;5031564;28;20117;-79
2022/05/27 16:08:02;;;;;;;13.55;3.38;;;27.70;97.60;;;;;;5030698;28;20072;-80
2022/05/27 16:10:33;;;;;;;14.55;3.63;;;27.70;97.30;;;;;;5031100;28;20029;-76
2022/05/27 16:13:02;;;;;;;19.38;3.92;;;27.80;96.00;;;;;;5031009;28;20025;-82
2022/05/27 16:15:28;;;;;;;20.10;4.07;;;27.80;95.70;;;;;;5031768;28;20108;-78
2022/05/27 16:17:55;;;;;;;15.00;3.60;;;27.70;95.10;;;;;;5030298;28;20109;-79
2022/05/27 16:20:34;;;;;;;16.50;4.28;;;27.80;94.80;;;;;;5031034;28;22173;-80
2022/05/27 16:23:01;;;;;;;19.88;4.32;;;27.70;94.70;;;;;;5030594;28;20119;-78
2022/05/27 16:25:29;;;;;;;18.92;4.20;;;27.80;95.20;;;;;;5030903;28;20474;-79
2022/05/27 16:27:57;;;;;;;22.17;4.07;;;27.80;94.90;;;;;;5031352;28;20038;-79
2022/05/27 16:30:26;;;;;;;22.85;4.50;;;27.70;95.10;;;;;;5031858;28;20082;-79
2022/05/27 16:32:52;;;;;;;13.35;4.25;;;27.70;96.50;;;;;;5031540;28;20029;-79
2022/05/27 16:35:19;;;;;;;16.30;3.90;;;27.70;98.00;;;;;;5030736;28;20021;-78
2022/05/27 16:37:45;;;;;;;19.52;4.18;;;27.60;98.40;;;;;;5030837;28;20582;-79
2022/05/27 16:40:13;;;;;;;14.93;4.18;;;27.70;99.00;;;;;;5031457;28;20116;-79
2022/05/27 16:42:39;;;;;;;16.08;4.03;;;27.60;99.40;;;;;;5033235;28;20029;-81
2022/05/27 16:45:06;;;;;;;23.05;4.18;;;27.50;99.90;;;;;;5036216;28;20041;-79
2022/05/27 16:47:33;;;;;;;25.90;5.68;;;27.50;99.90;;;;;;5035563;28;20029;-79
2022/05/27 16:49:59;;;;;;;8.82;3.78;;;27.40;99.90;;;;;;5036081;28;20087;-79
2022/05/27 16:52:24;;;;;;;14.98;4.70;;;27.40;99.90;;;;;;5034846;28;20030;-79
2022/05/27 16:54:50;;;;;;;20.17;5.00;;;27.40;99.90;;;;;;5035165;28;20045;-78
2022/05/27 16:57:16;;;;;;;20.08;4.82;;;27.40;99.90;;;;;;5035844;28;20021;-79
2022/05/27 16:59:42;;;;;;;17.50;4.93;;;27.40;99.90;;;;;;5035033;28;20033;-79
2022/05/27 17:02:10;;;;;;;24.52;4.32;;;27.30;99.90;;;;;;5035400;28;20025;-78
2022/05/27 17:04:36;;;;;;;24.92;4.60;;;27.30;99.90;;;;;;5034460;28;20038;-78
2022/05/27 17:07:02;;;;;;;12.45;3.35;;;27.30;99.90;;;;;;5016778;28;20478;-81
2022/05/27 17:09:27;;;;;;;13.27;4.93;;;27.20;99.90;;;;;;5034727;28;20036;-84
2022/05/27 17:11:53;;;;;;;11.13;3.75;;;27.20;99.90;;;;;;5035181;28;20029;-81
2022/05/27 17:14:19;;;;;;;14.95;4.20;;;27.10;99.90;;;;;;5017223;28;20037;-79
2022/05/27 17:16:45;;;;;;;16.88;4.38;;;27.10;99.90;;;;;;5034951;28;20053;-83
2022/05/27 17:19:11;;;;;;;12.45;4.10;;;27.10;99.90;;;;;;5035762;28;20359;-80
2022/05/27 17:21:37;;;;;;;25.83;5.40;;;27.10;99.90;;;;;;5035207;28;20036;-82
2022/05/27 17:24:03;;;;;;;24.98;4.43;;;27.00;99.90;;;;;;5034835;28;20041;-79
2022/05/27 17:26:28;;;;;;;13.38;4.18;;;27.00;99.90;;;;;;5034455;28;20116;-78
2022/05/27 17:28:54;;;;;;;14.85;4.35;;;26.90;99.90;;;;;;5034606;28;20478;-79
2022/05/27 17:31:20;;;;;;;15.10;4.70;;;26.90;99.90;;;;;;5033789;28;20052;-77
2022/05/27 17:33:46;;;;;;;19.08;5.68;;;26.80;99.90;;;;;;5034713;28;20064;-77
2022/05/27 17:36:13;;;;;;;24.75;4.72;;;26.80;99.90;;;;;;5033885;28;20041;-78
2022/05/27 17:38:39;;;;;;;20.60;4.90;;;26.70;99.90;;;;;;5034316;28;20482;-80
2022/05/27 17:41:09;;;;;;;25.77;5.30;;;26.70;99.90;;;;;;5034867;28;20033;-78
2022/05/27 17:43:43;;;;;;;25.60;5.30;;;26.70;99.90;;;;;;5034252;28;20494;-78
2022/05/27 17:46:11;;;;;;;20.02;6.25;;;26.70;99.90;;;;;;5033953;28;20033;-77
2022/05/27 17:51:25;;;;;;;12.23;4.50;;;26.60;99.90;;;;;;5035275;28;20477;-77
2022/05/27 17:53:57;;;;;;;23.52;4.88;;;26.50;99.90;;;;;;5032880;28;20037;-78
2022/05/27 17:56:24;;;;;;;23.52;4.03;;;26.40;99.90;;;;;;5017377;28;20037;-76
2022/05/27 17:58:52;;;;;;;16.08;5.00;;;26.30;99.90;;;;;;5034822;28;20116;-78
2022/05/27 18:01:19;;;;;;;13.63;4.90;;;26.30;99.90;;;;;;5034521;28;20033;-78
2022/05/27 18:03:45;;;;;;;12.60;5.65;;;26.20;99.90;;;;;;5034478;28;20045;-75
2022/05/27 18:06:12;;;;;;;18.35;4.63;;;26.20;99.90;;;;;;5035857;28;20414;-77
2022/05/27 18:08:38;;;;;;;18.60;4.90;;;26.10;99.90;;;;;;5017364;28;20038;-75
2022/05/27 18:11:04;;;;;;;17.85;4.78;;;26.00;99.90;;;;;;5034841;28;20039;-76
2022/05/27 18:13:33;;;;;;;17.98;5.40;;;26.00;99.90;;;;;;5034940;28;20044;-76
2022/05/27 18:16:01;;;;;;;21.17;5.57;;;25.90;99.90;;;;;;5017302;28;20026;-77
2022/05/27 18:18:27;;;;;;;18.40;5.78;;;25.90;99.90;;;;;;5017134;28;20494;-77
2022/05/27 18:20:53;;;;;;;26.05;5.72;;;25.90;99.90;;;;;;5035146;28;20044;-76
2022/05/27 18:23:18;;;;;;;17.67;6.75;;;25.80;99.90;;;;;;5034773;28;20037;-76
2022/05/27 18:25:44;;;;;;;20.05;6.45;;;25.70;99.90;;;;;;5034639;28;20474;-75
2022/05/27 18:28:11;;;;;;;26.40;6.57;;;25.70;99.90;;;;;;5033773;28;20033;-76
2022/05/27 18:30:38;;;;;;;22.80;7.88;;;25.60;99.90;;;;;;5033803;28;20084;-75
2022/05/27 18:33:05;;;;;;;32.65;8.43;;;25.60;99.90;;;;;;5033608;28;20547;-76
2022/05/27 18:35:31;;;;;;;15.85;4.85;;;25.50;99.90;;;;;;5016349;28;20108;-78
2022/05/27 18:37:57;;;;;;;15.48;5.13;;;25.60;99.90;;;;;;5032983;28;20021;-75
2022/05/27 18:40:24;;;;;;;21.42;5.72;;;25.60;99.90;;;;;;5033055;28;20467;-77
2022/05/27 18:42:50;;;;;;;22.83;5.65;;;25.50;99.90;;;;;;5032534;28;20033;-77
2022/05/27 18:45:16;;;;;;;19.88;6.15;;;25.50;99.90;;;;;;5032753;28;20397;-75
2022/05/27 18:47:43;;;;;;;24.80;7.03;;;25.40;99.90;;;;;;5014673;28;20108;-75
2022/05/27 18:50:10;;;;;;;29.65;8.90;;;25.30;99.90;;;;;;5032498;28;20501;-76
2022/05/27 18:52:36;;;;;;;31.35;7.70;;;25.20;99.90;;;;;;5032863;28;20044;-75
2022/05/27 18:55:06;;;;;;;20.50;6.55;;;25.20;99.90;;;;;;5032456;28;20036;-77
2022/05/27 18:57:32;;;;;;;17.58;6.03;;;25.20;99.90;;;;;;5032624;28;20032;-75
2022/05/27 18:59:58;;;;;;;27.73;6.55;;;25.20;99.90;;;;;;5032908;28;20033;-78
2022/05/27 19:02:24;;;;;;;16.63;5.75;;;25.10;99.90;;;;;;5033242;28;20025;-75
2022/05/27 19:04:50;;;;;;;23.25;6.30;;;25.10;99.90;;;;;;5032308;28;20041;-78
2022/05/27 19:07:16;;;;;;;22.45;6.97;;;25.00;99.90;;;;;;5032213;28;20029;-77
2022/05/27 19:09:42;;;;;;;31.17;6.88;;;24.90;99.90;;;;;;5033033;28;20025;-75
2022/05/27 19:12:10;;;;;;;17.38;7.25;;;24.90;99.90;;;;;;5032676;28;20091;-79
2022/05/27 19:14:41;;;;;;;19.17;6.85;;;24.90;99.90;;;;;;5032455;28;20033;-75
2022/05/27 19:17:07;;;;;;;22.60;7.37;;;24.90;99.90;;;;;;5015041;28;20030;-80
2022/05/27 19:22:17;;;;;;;26.90;7.28;;;24.90;99.90;;;;;;5033035;28;20099;-75
2022/05/27 19:24:42;;;;;;;24.08;6.05;;;24.80;99.90;;;;;;5032533;28;20038;-75
2022/05/27 19:27:08;;;;;;;17.35;5.82;;;24.80;99.90;;;;;;5014648;28;20386;-75
2022/05/27 19:29:34;;;;;;;20.45;5.35;;;24.70;99.90;;;;;;5014377;28;20041;-75
2022/05/27 19:32:00;;;;;;;18.77;5.68;;;24.70;99.90;;;;;;5032564;28;20030;-75
2022/05/27 19:34:25;;;;;;;26.80;5.68;;;24.70;99.90;;;;;;5014433;28;20033;-76
2022/05/27 19:36:51;;;;;;;18.50;5.35;;;24.70;99.90;;;;;;5014489;28;20055;-75
2022/05/27 19:39:17;;;;;;;35.22;6.30;;;24.60;99.90;;;;;;5014469;28;20556;-75
2022/05/27 19:41:43;;;;;;;18.85;7.32;;;24.60;99.90;;;;;;5032044;28;20501;-76
2022/05/27 19:44:09;;;;;;;32.67;7.15;;;24.50;99.90;;;;;;5031947;28;20390;-76
2022/05/27 19:46:36;;;;;;;18.15;6.72;;;24.40;99.90;;;;;;5032360;28;20029;-76
2022/05/27 19:49:03;;;;;;;23.05;6.43;;;24.30;99.90;;;;;;5032351;28;20044;-80
2022/05/27 19:51:39;;;;;;;22.65;6.45;;;24.20;99.90;;;;;;5032040;28;20036;-78
2022/05/27 19:54:05;;;;;;;20.17;7.05;;;24.20;99.90;;;;;;5031841;28;20024;-78
2022/05/27 19:56:32;;;;;;;17.63;6.95;;;24.10;99.90;;;;;;5031637;28;20022;-76
2022/05/27 20:07:14;;;;;;;23.98;6.97;;;23.90;99.90;;;;;;5032178;28;20106;-76
2022/05/27 20:09:41;;;;;;;16.50;5.93;;;23.90;99.90;;;;;;5032007;28;20045;-77
2022/05/27 20:12:08;;;;;;;18.45;6.22;;;23.90;99.90;;;;;;5032108;28;20048;-77
2022/05/27 20:14:34;;;;;;;18.70;6.38;;;23.80;99.90;;;;;;5031755;28;20033;-76
2022/05/27 20:17:00;;;;;;;20.65;6.20;;;23.80;99.90;;;;;;5031190;28;20041;-77
2022/05/27 20:19:27;;;;;;;20.20;6.00;;;23.80;99.90;;;;;;5031907;28;20033;-77
2022/05/27 20:21:54;;;;;;;24.95;6.90;;;23.80;99.90;;;;;;5031970;28;20108;-74
2022/05/27 20:24:20;;;;;;;34.58;6.63;;;23.90;99.90;;;;;;5031820;28;20497;-76
2022/05/27 20:26:47;;;;;;;28.08;7.03;;;23.90;99.90;;;;;;5013843;28;20029;-77
2022/05/27 20:29:14;;;;;;;24.52;7.22;;;23.90;99.90;;;;;;5030744;28;20483;-77
2022/05/27 20:31:41;;;;;;;15.63;5.25;;;23.90;99.90;;;;;;5032007;28;20040;-79
2022/05/27 20:34:07;;;;;;;26.00;5.40;;;24.00;99.90;;;;;;5031613;28;20026;-76
2022/05/27 20:39:17;;;;;;;15.88;4.80;;;24.00;99.90;;;;;;5031124;28;20036;-74
2022/05/27 20:41:43;;;;;;;13.25;5.43;;;23.90;99.90;;;;;;5031511;28;20030;-75
2022/05/27 20:44:08;;;;;;;22.55;5.63;;;23.80;99.90;;;;;;5013892;28;20061;-76
2022/05/27 20:46:36;;;;;;;16.23;6.68;;;23.70;99.90;;;;;;5031540;28;20033;-79
2022/05/27 20:49:03;;;;;;;23.55;5.95;;;23.70;99.90;;;;;;5031520;28;20033;-80
2022/05/27 20:51:29;;;;;;;26.60;6.38;;;23.60;99.90;;;;;;5031302;28;20021;-77
2022/05/27 20:53:57;;;;;;;16.00;5.60;;;23.50;99.90;;;;;;5031442;28;20038;-79
2022/05/27 20:56:24;;;;;;;22.58;6.35;;;23.50;99.90;;;;;;5030803;28;20038;-80
2022/05/27 20:58:50;;;;;;;14.82;5.22;;;23.30;99.90;;;;;;5030329;28;20025;-79
2022/05/27 21:01:17;;;;;;;13.20;5.18;;;23.20;99.90;;;;;;5030875;28;20431;-79
2022/05/27 21:03:43;;;;;;;14.88;4.85;;;23.20;99.90;;;;;;5030558;28;20041;-78
2022/05/27 21:06:09;;;;;;;18.95;5.55;;;23.10;99.90;;;;;;5031027;28;20448;-76
2022/05/27 21:08:56;;;;;;;16.33;5.20;;;23.10;99.90;;;;;;5031312;28;20033;-81
2022/05/27 21:11:32;;;;;;;20.83;5.15;;;23.10;99.90;;;;;;5031738;28;20494;-77
2022/05/27 21:13:59;;;;;;;24.08;6.03;;;23.00;99.90;;;;;;5030454;28;20034;-81
2022/05/27 21:16:26;;;;;;;22.58;5.80;;;23.00;99.90;;;;;;5031144;28;20034;-80
2022/05/27 21:18:52;;;;;;;17.52;5.15;;;23.00;99.90;;;;;;5030391;28;20460;-77
2022/05/27 21:21:20;;;;;;;22.17;5.95;;;23.00;99.90;;;;;;5030092;28;20104;-78
2022/05/27 21:23:47;;;;;;;24.45;5.82;;;23.00;99.90;;;;;;5031126;28;20428;-79
2022/05/27 21:26:14;;;;;;;21.02;6.50;;;23.10;99.90;;;;;;5030229;28;20034;-81
2022/05/27 21:28:40;;;;;;;21.35;5.57;;;23.10;99.90;;;;;;5031327;28;20029;-80
2022/05/27 21:31:05;;;;;;;19.77;7.47;;;23.10;99.90;;;;;;5016230;28;20487;-80
2022/05/27 21:33:32;;;;;;;24.08;5.93;;;23.20;99.90;;;;;;5034367;28;20064;-80